createdAt,value
2018-02-17T00:02:06.797Z,97249.34
2018-02-17T00:05:30.840Z,97244.42
2018-02-17T00:08:54.138Z,97238.25
2018-02-17T00:12:18.219Z,97241.91
2018-02-17T00:15:41.537Z,97234.30
2018-02-17T00:19:04.860Z,97244.20
2018-02-17T00:22:28.221Z,97239.66
2018-02-17T00:25:51.534Z,97222.38
2018-02-17T00:29:14.861Z,97215.63
2018-02-17T00:32:38.177Z,97214.61
2018-02-17T00:36:01.487Z,97211.09
2018-02-17T00:39:25.646Z,97207.33
2018-02-17T00:42:48.989Z,97200.02
2018-02-17T00:46:13.036Z,97201.16
2018-02-17T00:49:37.119Z,97197.72
2018-02-17T00:53:01.257Z,97192.03
2018-02-17T00:56:24.530Z,97186.58
2018-02-17T00:59:48.593Z,97167.67
2018-02-17T01:03:11.869Z,97163.37
2018-02-17T01:06:35.203Z,97159.64
2018-02-17T01:09:59.294Z,97153.99
2018-02-17T01:13:22.578Z,97144.96
2018-02-17T01:16:46.615Z,97151.05
2018-02-17T01:20:10.664Z,97141.39
2018-02-17T01:23:34.009Z,97141.77
2018-02-17T01:26:57.309Z,97135.18
2018-02-17T01:30:20.602Z,97128.73
2018-02-17T01:33:44.653Z,97121.34
2018-02-17T01:37:07.944Z,97110.21
2018-02-17T01:40:31.273Z,97094.87
2018-02-17T01:43:54.596Z,97092.08
2018-02-17T01:47:18.670Z,97090.65
2018-02-17T01:50:41.952Z,97084.03
2018-02-17T01:54:06.020Z,97072.33
2018-02-17T01:57:29.335Z,97068.72
2018-02-17T02:00:52.691Z,97066.83
2018-02-17T02:04:16.755Z,97058.38
2018-02-17T02:07:40.024Z,97055.88
2018-02-17T02:11:03.350Z,97045.68
2018-02-17T02:14:26.656Z,97017.45
2018-02-17T02:17:49.958Z,97000.59
2018-02-17T02:21:14.072Z,97000.71
2018-02-17T02:24:37.364Z,96984.53
2018-02-17T02:28:01.459Z,96978.62
2018-02-17T02:31:24.779Z,96977.19
2018-02-17T02:34:48.087Z,96965.89
2018-02-17T02:38:12.169Z,96969.69
2018-02-17T02:41:35.470Z,96983.87
2018-02-17T02:44:58.783Z,96998.83
2018-02-17T02:48:22.080Z,96995.47
2018-02-17T02:51:46.138Z,96989.72
2018-02-17T02:55:09.448Z,96984.56
2018-02-17T02:58:33.520Z,96983.80
2018-02-17T03:01:57.580Z,96962.77
2018-02-17T03:05:20.885Z,96952.72
2018-02-17T03:08:44.970Z,96960.83
2018-02-17T03:12:09.001Z,96958.48
2018-02-17T03:15:33.038Z,96963.98
2018-02-17T03:18:57.081Z,96963.08
2018-02-17T03:22:21.168Z,96935.18
2018-02-17T03:25:45.211Z,96935.42
2018-02-17T03:29:08.499Z,96928.94
2018-02-17T03:32:31.894Z,96923.19
2018-02-17T03:35:56.017Z,96920.16
2018-02-17T03:39:19.320Z,96911.60
2018-02-17T03:42:42.659Z,96911.16
2018-02-17T03:46:06.695Z,96904.18
2018-02-17T03:49:30.827Z,96914.24
2018-02-17T03:52:54.879Z,96897.27
2018-02-17T03:56:18.926Z,96874.80
2018-02-17T03:59:42.250Z,96864.05
2018-02-17T04:03:05.496Z,96861.80
2018-02-17T04:06:29.563Z,96862.14
2018-02-17T04:09:52.853Z,96851.00
2018-02-17T04:13:16.960Z,96850.30
2018-02-17T04:16:40.235Z,96852.08
2018-02-17T04:20:03.560Z,96861.65
2018-02-17T04:23:26.828Z,96845.81
2018-02-17T04:26:50.126Z,96840.97
2018-02-17T04:30:13.449Z,96820.95
2018-02-17T04:33:36.760Z,96805.20
2018-02-17T04:37:00.056Z,96794.41
2018-02-17T04:40:28.644Z,96796.42
2018-02-17T04:44:07.633Z,96794.03
2018-02-17T04:47:33.179Z,96789.77
2018-02-17T04:51:02.052Z,96784.22
2018-02-17T04:54:37.141Z,96783.18
2018-02-17T04:58:00.406Z,96792.70
2018-02-17T05:01:39.568Z,96782.63
2018-02-17T05:05:08.272Z,96779.45
2018-02-17T05:08:37.119Z,96767.84
2018-02-17T05:12:00.389Z,96765.36
2018-02-17T05:15:23.669Z,96773.24
2018-02-17T05:22:43.873Z,96778.56
2018-02-17T05:26:08.720Z,96769.97
2018-02-17T05:29:32.772Z,96763.24
2018-02-17T05:32:57.582Z,96764.21
2018-02-17T05:36:33.528Z,96773.66
2018-02-17T05:40:13.619Z,96771.95
2018-02-17T05:43:36.904Z,96759.33
2018-02-17T05:47:00.997Z,96755.56
2018-02-17T05:50:24.597Z,96760.53
2018-02-17T05:53:48.196Z,96768.14
2018-02-17T05:57:12.303Z,96759.28
2018-02-17T06:00:35.626Z,96737.38
2018-02-17T06:03:58.922Z,96734.98
2018-02-17T06:07:22.191Z,96725.01
2018-02-17T06:10:45.491Z,96714.55
2018-02-17T06:14:08.787Z,96719.76
2018-02-17T06:17:32.173Z,96706.88
2018-02-17T06:20:55.544Z,96710.67
2018-02-17T06:24:18.826Z,96707.80
2018-02-17T06:27:42.948Z,96699.09
2018-02-17T06:31:06.266Z,96693.23
2018-02-17T06:34:29.636Z,96691.34
2018-02-17T06:37:52.893Z,96687.07
2018-02-17T06:41:16.237Z,96683.24
2018-02-17T06:44:40.275Z,96688.72
2018-02-17T06:48:03.565Z,96699.81
2018-02-17T06:51:26.873Z,96701.84
2018-02-17T06:54:50.158Z,96688.43
2018-02-17T06:58:14.227Z,96691.89
2018-02-17T07:01:37.519Z,96685.98
2018-02-17T07:05:00.798Z,96690.45
2018-02-17T07:08:24.921Z,96679.83
2018-02-17T07:11:48.215Z,96689.50
2018-02-17T07:15:12.244Z,96685.81
2018-02-17T07:18:35.554Z,96675.89
2018-02-17T07:21:59.636Z,96682.67
2018-02-17T07:25:23.692Z,96665.97
2018-02-17T07:28:47.019Z,96667.98
2018-02-17T07:32:10.412Z,96670.73
2018-02-17T07:35:34.512Z,96664.95
2018-02-17T07:38:58.713Z,96644.66
2018-02-17T07:42:22.351Z,96659.61
2018-02-17T07:45:46.068Z,96672.45
2018-02-17T07:49:10.332Z,96650.99
2018-02-17T07:52:34.720Z,96650.70
2018-02-17T07:55:58.736Z,96655.37
2018-02-17T07:59:25.033Z,96673.91
2018-02-17T08:02:49.340Z,96667.48
2018-02-17T08:06:13.665Z,96629.96
2018-02-17T08:09:37.211Z,96635.22
2018-02-17T08:13:01.322Z,96627.84
2018-02-17T08:16:24.685Z,96631.41
2018-02-17T08:19:48.135Z,96630.45
2018-02-17T08:23:12.316Z,96630.73
2018-02-17T08:26:36.756Z,96636.70
2018-02-17T08:30:00.263Z,96628.96
2018-02-17T08:33:24.473Z,96640.68
2018-02-17T08:36:47.836Z,96641.56
2018-02-17T08:40:11.919Z,96632.37
2018-02-17T08:43:35.214Z,96636.67
2018-02-17T08:46:59.363Z,96633.23
2018-02-17T08:50:23.451Z,96627.56
2018-02-17T08:53:48.755Z,96623.49
2018-02-17T08:57:12.930Z,96630.27
2018-02-17T09:00:36.188Z,96621.49
2018-02-17T09:03:59.458Z,96624.16
2018-02-17T09:07:22.860Z,96615.18
2018-02-17T09:10:50.875Z,96620.02
2018-02-17T09:14:14.198Z,96611.53
2018-02-17T09:17:37.567Z,96598.08
2018-02-17T09:21:00.842Z,96603.64
2018-02-17T09:24:25.077Z,96603.63
2018-02-17T09:27:48.343Z,96613.39
2018-02-17T09:31:13.081Z,96617.15
2018-02-17T09:34:37.011Z,96603.56
2018-02-17T09:38:00.311Z,96612.61
2018-02-17T09:41:24.403Z,96608.13
2018-02-17T09:44:48.530Z,96597.30
2018-02-17T09:48:11.857Z,96589.09
2018-02-17T09:51:35.909Z,96589.66
2018-02-17T09:54:59.252Z,96591.09
2018-02-17T09:58:22.797Z,96589.37
2018-02-17T10:01:46.827Z,96587.72
2018-02-17T10:05:10.151Z,96594.66
2018-02-17T10:08:33.458Z,96591.23
2018-02-17T10:11:57.667Z,96598.84
2018-02-17T10:15:21.176Z,96602.20
2018-02-17T10:18:45.461Z,96606.46
2018-02-17T10:22:11.809Z,96611.38
2018-02-17T10:25:35.397Z,96611.30
2018-02-17T10:28:59.012Z,96610.20
2018-02-17T10:32:22.514Z,96607.30
2018-02-17T10:35:46.797Z,96601.64
2018-02-17T10:39:10.343Z,96580.33
2018-02-17T10:42:33.931Z,96571.28
2018-02-17T10:45:59.199Z,96587.45
2018-02-17T10:49:22.611Z,96592.48
2018-02-17T10:52:46.783Z,96591.89
2018-02-17T10:56:11.778Z,96577.22
2018-02-17T10:59:35.313Z,96578.58
2018-02-17T11:02:59.419Z,96581.25
2018-02-17T11:06:24.949Z,96581.41
2018-02-17T11:09:48.894Z,96587.67
2018-02-17T11:13:12.307Z,96569.25
2018-02-17T11:16:35.763Z,96565.00
2018-02-17T11:20:00.212Z,96569.87
2018-02-17T11:23:26.913Z,96561.92
2018-02-17T11:26:51.079Z,96552.77
2018-02-17T11:30:14.773Z,96538.61
2018-02-17T11:33:42.283Z,96510.69
2018-02-17T11:37:06.473Z,96532.45
2018-02-17T11:48:30.311Z,96533.61
2018-02-17T11:51:54.419Z,96530.11
2018-02-17T11:55:18.542Z,96531.37
2018-02-17T11:58:42.611Z,96532.11
2018-02-17T12:02:05.892Z,96535.19
2018-02-17T12:05:29.984Z,96533.61
2018-02-17T12:08:54.160Z,96540.37
2018-02-17T12:12:18.194Z,96559.97
2018-02-17T12:15:41.451Z,96572.66
2018-02-17T12:19:04.752Z,96574.75
2018-02-17T12:22:28.827Z,96575.92
2018-02-17T12:25:52.922Z,96579.84
2018-02-17T12:29:17.062Z,96572.42
2018-02-17T12:32:41.144Z,96549.93
2018-02-17T12:36:05.274Z,96538.48
2018-02-17T12:39:28.607Z,96539.05
2018-02-17T12:42:53.364Z,96535.67
2018-02-17T12:46:17.441Z,96532.58
2018-02-17T12:49:41.532Z,96527.67
2018-02-17T12:53:05.622Z,96537.23
2018-02-17T12:56:29.001Z,96534.42
2018-02-17T12:59:52.335Z,96524.84
2018-02-17T13:03:15.674Z,96534.50
2018-02-17T13:06:39.754Z,96543.52
2018-02-17T13:10:03.057Z,96532.31
2018-02-17T13:13:26.394Z,96532.35
2018-02-17T13:16:49.670Z,96536.21
2018-02-17T13:20:13.765Z,96525.63
2018-02-17T13:23:37.101Z,96542.05
2018-02-17T13:27:00.397Z,96535.95
2018-02-17T13:30:28.013Z,96542.23
2018-02-17T13:33:54.054Z,96544.00
2018-02-17T13:37:20.002Z,96554.90
2018-02-17T13:40:43.588Z,96554.41
2018-02-17T13:44:07.636Z,96556.07
2018-02-17T13:47:32.323Z,96556.30
2018-02-17T13:50:55.723Z,96556.16
2018-02-17T13:54:19.840Z,96564.97
2018-02-17T13:57:43.896Z,96563.11
2018-02-17T14:01:07.191Z,96561.24
2018-02-17T14:04:30.492Z,96568.27
2018-02-17T14:07:53.820Z,96572.88
2018-02-17T14:11:17.492Z,96573.33
2018-02-17T14:14:40.783Z,96579.55
2018-02-17T14:18:05.876Z,96582.84
2018-02-17T14:21:29.353Z,96588.06
2018-02-17T14:24:52.713Z,96593.27
2018-02-17T14:28:15.985Z,96595.65
2018-02-17T14:31:39.409Z,96598.88
2018-02-17T14:35:02.720Z,96597.08
2018-02-17T14:38:26.038Z,96607.59
2018-02-17T14:41:50.159Z,96607.75
2018-02-17T14:45:14.189Z,96614.73
2018-02-17T14:48:38.229Z,96627.23
2018-02-17T14:52:02.281Z,96629.18
2018-02-17T14:55:25.678Z,96641.92
2018-02-17T14:58:48.965Z,96642.33
2018-02-17T15:02:13.070Z,96645.39
2018-02-17T15:05:36.408Z,96649.67
2018-02-17T15:09:00.597Z,96653.53
2018-02-17T15:12:24.642Z,96654.81
2018-02-17T15:15:48.701Z,96661.20
2018-02-17T15:19:12.026Z,96666.33
2018-02-17T15:22:36.264Z,96673.49
2018-02-17T15:26:00.154Z,96678.49
2018-02-17T15:29:23.474Z,96679.05
2018-02-17T15:32:46.948Z,96685.74
2018-02-17T15:36:11.451Z,96686.74
2018-02-17T15:39:35.520Z,96690.47
2018-02-17T15:42:58.816Z,96692.52
2018-02-17T15:46:22.863Z,96693.47
2018-02-17T15:49:47.109Z,96699.46
2018-02-17T15:53:10.381Z,96709.02
2018-02-17T15:56:33.665Z,96712.89
2018-02-17T15:59:58.567Z,96715.83
2018-02-17T16:03:21.862Z,96722.30
2018-02-17T16:06:46.332Z,96721.08
2018-02-17T16:10:10.513Z,96729.34
2018-02-17T16:13:33.829Z,96735.96
2018-02-17T16:16:57.114Z,96741.18
2018-02-17T16:20:21.231Z,96752.42
2018-02-17T16:23:44.509Z,96749.95
2018-02-17T16:27:07.884Z,96759.17
2018-02-17T16:30:31.155Z,96754.42
2018-02-17T16:33:58.404Z,96770.15
2018-02-17T16:37:22.434Z,96768.87
2018-02-17T16:40:46.702Z,96778.04
2018-02-17T16:44:11.043Z,96786.05
2018-02-17T16:47:35.484Z,96793.36
2018-02-17T16:50:59.872Z,96800.81
2018-02-17T16:54:24.765Z,96802.53
2018-02-17T16:57:49.551Z,96819.69
2018-02-17T17:01:15.904Z,96824.38
2018-02-17T17:04:40.325Z,96839.19
2018-02-17T17:08:05.122Z,96841.30
2018-02-17T17:11:29.856Z,96868.34
2018-02-17T17:14:54.372Z,96885.27
2018-02-17T17:18:18.873Z,96875.81
2018-02-17T17:21:43.207Z,96896.30
2018-02-17T17:25:06.861Z,96895.77
2018-02-17T17:28:30.592Z,96885.98
2018-02-17T17:31:54.337Z,96891.95
2018-02-17T17:35:17.731Z,96902.34
2018-02-17T17:38:41.787Z,96908.17
2018-02-17T17:42:05.117Z,96907.52
2018-02-17T17:45:28.449Z,96922.28
2018-02-17T17:48:52.516Z,96909.53
2018-02-17T17:52:15.840Z,96923.17
2018-02-17T17:55:39.211Z,96926.30
2018-02-17T17:59:02.559Z,96918.19
2018-02-17T18:02:40.714Z,96936.48
2018-02-17T18:06:04.178Z,96932.09
2018-02-17T18:09:29.471Z,96937.17
2018-02-17T18:13:14.592Z,96941.67
2018-02-17T18:16:49.592Z,96949.64
2018-02-17T18:20:13.980Z,96951.53
2018-02-17T18:23:38.442Z,96954.86
2018-02-17T18:27:02.543Z,96961.90
2018-02-17T18:30:26.414Z,96964.02
2018-02-17T18:33:50.724Z,96967.28
2018-02-17T18:37:16.173Z,96974.17
2018-02-17T18:40:40.510Z,96971.23
2018-02-17T18:44:06.811Z,96970.63
2018-02-17T18:47:31.034Z,96988.33
2018-02-17T18:50:54.353Z,96988.21
2018-02-17T18:54:18.871Z,96995.12
2018-02-17T18:57:42.209Z,96997.72
2018-02-17T19:01:06.299Z,97005.39
2018-02-17T19:04:29.805Z,97004.19
2018-02-17T19:07:57.317Z,97008.33
2018-02-17T19:11:22.070Z,97010.70
2018-02-17T19:14:47.698Z,97018.73
2018-02-17T19:18:14.042Z,97019.16
2018-02-17T19:21:39.067Z,97026.41
2018-02-17T19:25:02.452Z,97035.33
2018-02-17T19:28:25.765Z,97029.19
2018-02-17T19:31:49.161Z,97036.17
2018-02-17T19:35:14.383Z,97028.98
2018-02-17T19:38:37.771Z,97040.91
2018-02-17T19:42:01.165Z,97044.89
2018-02-17T19:45:25.391Z,97027.02
2018-02-17T19:48:48.766Z,97038.72
2018-02-17T19:52:12.133Z,97032.03
2018-02-17T19:55:35.474Z,97040.34
2018-02-17T19:58:59.633Z,97043.96
2018-02-17T20:02:22.966Z,97047.25
2018-02-17T20:05:53.491Z,97052.27
2018-02-17T20:09:19.004Z,97050.02
2018-02-17T20:12:46.377Z,97059.87
2018-02-17T20:16:09.774Z,97060.98
2018-02-17T20:19:33.876Z,97071.84
2018-02-17T20:22:58.126Z,97073.05
2018-02-17T20:26:21.756Z,97084.71
2018-02-17T20:29:45.271Z,97090.12
2018-02-17T20:33:10.343Z,97097.47
2018-02-17T20:36:35.327Z,97102.53
2018-02-17T20:39:58.766Z,97098.41
2018-02-17T20:43:22.922Z,97099.88
2018-02-17T20:46:47.656Z,97118.94
2018-02-17T20:50:11.887Z,97110.98
2018-02-17T20:53:36.051Z,97116.88
2018-02-17T20:57:01.115Z,97125.53
2018-02-17T21:08:34.337Z,97143.87
2018-02-17T21:11:59.111Z,97143.16
2018-02-17T21:15:25.086Z,97144.98
2018-02-17T21:18:49.358Z,97152.50
2018-02-17T21:22:14.482Z,97165.02
2018-02-17T21:25:37.771Z,97176.50
2018-02-17T21:29:01.096Z,97174.63
2018-02-17T21:32:24.377Z,97184.69
2018-02-17T21:35:50.676Z,97185.81
2018-02-17T21:39:14.864Z,97186.95
2018-02-17T21:42:39.566Z,97199.09
2018-02-17T21:46:03.312Z,97207.33
2018-02-17T21:49:26.766Z,97216.04
2018-02-17T21:52:51.255Z,97220.19
2018-02-17T21:56:15.473Z,97229.91
2018-02-17T21:59:38.920Z,97233.06
2018-02-17T22:03:03.134Z,97242.30
2018-02-17T22:06:29.221Z,97256.15
2018-02-17T22:09:52.647Z,97253.07
2018-02-17T22:13:19.270Z,97254.00
2018-02-17T22:16:46.188Z,97259.77
2018-02-17T22:20:13.532Z,97268.23
2018-02-17T22:23:39.120Z,97260.08
2018-02-17T22:27:02.585Z,97269.25
2018-02-17T22:30:25.942Z,97270.77
2018-02-17T22:33:49.992Z,97269.69
2018-02-17T22:37:13.302Z,97275.80
2018-02-17T22:40:37.380Z,97275.02
2018-02-17T22:44:01.421Z,97287.97
2018-02-17T22:47:25.555Z,97285.37
2018-02-17T22:50:49.699Z,97294.13
2018-02-17T22:54:13.741Z,97299.88
2018-02-17T22:57:37.044Z,97298.77
2018-02-17T23:01:01.158Z,97302.42
2018-02-17T23:04:24.411Z,97315.63
2018-02-17T23:07:48.539Z,97308.05
2018-02-17T23:11:12.627Z,97314.88
2018-02-17T23:14:36.670Z,97322.48
2018-02-17T23:18:00.719Z,97324.52
2018-02-17T23:21:24.067Z,97323.95
2018-02-17T23:24:48.196Z,97330.85
2018-02-17T23:28:11.546Z,97330.94
2018-02-17T23:31:35.616Z,97334.84
2018-02-17T23:35:00.116Z,97337.06
2018-02-17T23:38:24.152Z,97336.67
2018-02-17T23:41:48.273Z,97338.91
2018-02-17T23:45:11.646Z,97340.59
2018-02-17T23:48:35.170Z,97352.08
2018-02-17T23:52:00.355Z,97346.56
2018-02-17T23:55:23.732Z,97338.42
2018-02-17T23:58:47.028Z,97348.14
